Time;durP1;ratioP1;P1;durP2;ratioP2;P2;SDS_P1;SDS_P2;PMS_P1;PMS_P2;Temp;Humidity;BMP_temperature;BMP_pressure;BME280_temperature;BME280_humidity;BME280_pressure;Samples;Min_cycle;Max_cycle;Signal;HPM_P1;HPM_P2
2022/10/14 00:01:31;;;;;;;11.20;5.78;;;12.10;99.90;;;;;;5026997;28;20051;-66
2022/10/14 00:03:58;;;;;;;6.07;4.40;;;12.20;99.90;;;;;;5026633;28;20246;-67
2022/10/14 00:06:27;;;;;;;7.70;5.15;;;12.10;99.90;;;;;;5026744;28;20057;-66
2022/10/14 00:08:54;;;;;;;9.98;4.88;;;12.10;99.90;;;;;;5027933;28;20059;-66
2022/10/14 00:11:24;;;;;;;6.82;4.55;;;12.10;99.90;;;;;;5028163;28;20046;-66
2022/10/14 00:13:55;;;;;;;7.15;4.78;;;12.00;99.90;;;;;;5027961;28;20091;-66
2022/10/14 00:16:28;;;;;;;6.47;4.47;;;12.00;99.90;;;;;;5028648;28;20049;-65
2022/10/14 00:18:55;;;;;;;8.25;4.95;;;12.00;99.90;;;;;;5027980;28;20056;-65
2022/10/14 00:21:22;;;;;;;8.85;5.38;;;12.00;99.90;;;;;;5028452;28;20050;-66
2022/10/14 00:23:49;;;;;;;5.88;4.53;;;12.00;99.90;;;;;;5027827;28;20511;-65
2022/10/14 00:26:21;;;;;;;9.18;4.90;;;12.00;99.90;;;;;;5028079;28;20054;-66
2022/10/14 00:28:48;;;;;;;9.23;5.35;;;12.10;99.90;;;;;;5010440;28;20555;-66
2022/10/14 00:31:15;;;;;;;7.95;5.78;;;12.10;99.90;;;;;;5027988;28;20052;-66
2022/10/14 00:33:41;;;;;;;9.27;4.93;;;12.10;99.90;;;;;;5027624;28;20504;-67
2022/10/14 00:36:10;;;;;;;9.40;5.30;;;12.10;99.90;;;;;;5010889;28;20158;-66
2022/10/14 00:38:37;;;;;;;10.98;5.93;;;12.10;99.90;;;;;;5027711;28;20067;-66
2022/10/14 00:41:04;;;;;;;6.65;4.88;;;12.10;99.90;;;;;;5027980;28;20133;-66
2022/10/14 00:43:58;;;;;;;10.25;5.55;;;12.10;99.90;;;;;;5028187;28;20049;-66
2022/10/14 00:46:26;;;;;;;7.85;4.80;;;12.10;99.90;;;;;;5017945;28;20574;-66
2022/10/14 00:48:52;;;;;;;10.48;5.05;;;12.10;99.90;;;;;;5028084;28;20159;-67
2022/10/14 00:51:19;;;;;;;9.27;6.35;;;12.10;99.90;;;;;;5028115;28;20404;-66
2022/10/14 00:53:46;;;;;;;12.70;5.95;;;12.10;99.90;;;;;;5010433;28;20054;-66
2022/10/14 00:56:14;;;;;;;9.70;5.15;;;12.10;99.90;;;;;;4995938;28;20041;-66
2022/10/14 00:58:41;;;;;;;8.43;5.60;;;12.10;99.90;;;;;;5010014;28;20057;-65
2022/10/14 01:01:08;;;;;;;11.43;6.10;;;12.10;99.90;;;;;;4662104;28;10000210;-66
2022/10/14 01:03:35;;;;;;;11.25;5.93;;;12.10;99.90;;;;;;5026775;28;20053;-66
2022/10/14 01:06:11;;;;;;;8.38;6.05;;;12.00;99.90;;;;;;5027679;28;20054;-66
2022/10/14 01:08:40;;;;;;;8.88;5.88;;;12.10;99.90;;;;;;5010249;28;20053;-65
2022/10/14 01:11:35;;;;;;;8.18;5.80;;;12.10;99.90;;;;;;5027313;28;20442;-65
2022/10/14 01:14:42;;;;;;;9.88;5.03;;;12.10;99.90;;;;;;5012884;28;20038;-66
2022/10/14 01:17:13;;;;;;;11.05;5.43;;;12.10;99.90;;;;;;4997400;28;20058;-66
2022/10/14 01:20:02;;;;;;;7.97;5.15;;;12.10;99.90;;;;;;5009890;28;20296;-65
2022/10/14 01:22:30;;;;;;;9.10;5.03;;;12.10;99.90;;;;;;5027599;28;20440;-65
2022/10/14 01:25:38;;;;;;;8.13;5.40;;;12.00;99.90;;;;;;5029778;28;20053;-65
2022/10/14 01:28:23;;;;;;;9.38;5.25;;;12.00;99.90;;;;;;5023189;28;20084;-65
2022/10/14 01:30:59;;;;;;;8.25;5.90;;;12.00;99.90;;;;;;5014152;28;20045;-65
2022/10/14 01:33:27;;;;;;;8.85;5.55;;;12.00;99.90;;;;;;5013412;28;20049;-65
2022/10/14 01:36:39;;;;;;;8.07;5.60;;;12.00;99.90;;;;;;5013131;28;20492;-65
2022/10/14 01:39:14;;;;;;;7.78;5.60;;;11.90;99.90;;;;;;4998915;28;20046;-65
2022/10/14 01:41:45;;;;;;;7.90;5.18;;;11.90;99.90;;;;;;4997738;28;20045;-65
2022/10/14 01:44:11;;;;;;;9.30;5.95;;;11.90;99.90;;;;;;5010368;28;20056;-66
2022/10/14 01:46:39;;;;;;;9.23;6.97;;;11.90;99.90;;;;;;5012995;28;20041;-65
2022/10/14 01:49:11;;;;;;;9.15;6.45;;;11.90;99.90;;;;;;5013115;28;20052;-64
2022/10/14 01:51:45;;;;;;;9.10;6.28;;;11.80;99.90;;;;;;5030655;28;20049;-64
2022/10/14 01:54:21;;;;;;;12.73;7.63;;;11.80;99.90;;;;;;5013488;28;20073;-68
2022/10/14 01:56:47;;;;;;;10.65;6.55;;;11.80;99.90;;;;;;5013047;28;20136;-66
2022/10/14 01:59:15;;;;;;;10.30;7.55;;;11.80;99.90;;;;;;5012836;28;20045;-65
2022/10/14 02:01:42;;;;;;;12.65;7.05;;;11.80;99.90;;;;;;5012523;28;20050;-65
2022/10/14 02:04:16;;;;;;;13.18;6.80;;;11.70;99.90;;;;;;5030473;28;20050;-66
2022/10/14 02:06:51;;;;;;;8.80;6.53;;;11.70;99.90;;;;;;5012598;28;20421;-64
2022/10/14 02:09:25;;;;;;;11.20;7.35;;;11.70;99.90;;;;;;5012644;28;20529;-64
2022/10/14 02:12:04;;;;;;;10.43;6.55;;;11.80;99.90;;;;;;5013275;28;20053;-66
2022/10/14 02:14:55;;;;;;;9.80;6.10;;;11.80;99.90;;;;;;5030319;28;20091;-64
2022/10/14 02:17:50;;;;;;;15.23;6.53;;;11.70;99.90;;;;;;5012412;28;20095;-66
2022/10/14 02:20:22;;;;;;;;;;;11.70;99.90;;;;;;5013044;28;20064;-66
2022/10/14 02:22:53;;;;;;;12.73;5.10;;;11.70;99.90;;;;;;5012634;28;19920;-65
2022/10/14 02:25:22;;;;;;;13.15;5.35;;;11.70;99.90;;;;;;5012398;28;20080;-65
2022/10/14 02:27:49;;;;;;;11.07;5.95;;;11.70;99.90;;;;;;5029850;28;20041;-63
2022/10/14 02:30:16;;;;;;;7.70;5.05;;;11.70;99.90;;;;;;5012388;28;20053;-67
2022/10/14 02:32:43;;;;;;;7.20;5.05;;;11.70;99.90;;;;;;5029537;28;20056;-64
2022/10/14 02:35:10;;;;;;;11.25;6.63;;;11.60;99.90;;;;;;5011241;28;20329;-64
2022/10/14 02:37:36;;;;;;;6.97;5.25;;;11.60;99.90;;;;;;5029745;28;20057;-64
2022/10/14 02:40:13;;;;;;;10.10;6.55;;;11.60;99.90;;;;;;5012166;28;20092;-65
2022/10/14 02:42:39;;;;;;;13.73;7.22;;;11.60;99.90;;;;;;5011921;28;20059;-65
2022/10/14 02:45:07;;;;;;;10.18;7.13;;;11.60;99.90;;;;;;5011657;28;20049;-65
2022/10/14 02:47:33;;;;;;;8.20;6.03;;;11.60;99.90;;;;;;5012088;28;20059;-64
2022/10/14 02:50:00;;;;;;;10.65;6.57;;;11.60;99.90;;;;;;5026156;28;20045;-64
2022/10/14 02:52:27;;;;;;;9.85;6.45;;;11.70;99.90;;;;;;5029680;28;20049;-66
2022/10/14 02:54:54;;;;;;;12.13;6.70;;;11.70;99.90;;;;;;5029240;28;20049;-65
2022/10/14 02:57:20;;;;;;;10.68;7.13;;;11.70;99.90;;;;;;5029253;28;20052;-65
2022/10/14 02:59:47;;;;;;;10.10;7.78;;;11.70;99.90;;;;;;5028639;28;20060;-66
2022/10/14 03:02:14;;;;;;;10.07;6.05;;;11.70;99.90;;;;;;5028268;28;20050;-64
2022/10/14 03:04:41;;;;;;;16.60;6.13;;;11.70;99.90;;;;;;5028109;28;20080;-64
2022/10/14 03:07:07;;;;;;;10.57;6.43;;;11.70;99.90;;;;;;5028811;28;20054;-64
2022/10/14 03:09:34;;;;;;;10.73;7.00;;;11.80;99.90;;;;;;5028621;28;20041;-65
2022/10/14 03:12:01;;;;;;;12.25;6.65;;;11.70;99.90;;;;;;5029149;28;20056;-63
2022/10/14 03:14:27;;;;;;;10.10;7.65;;;11.70;99.90;;;;;;5028816;28;20048;-65
2022/10/14 03:16:54;;;;;;;9.77;6.78;;;11.70;99.90;;;;;;5028991;28;20390;-65
2022/10/14 03:19:21;;;;;;;14.93;8.70;;;11.70;99.90;;;;;;5028643;28;20448;-65
2022/10/14 03:21:48;;;;;;;15.68;9.20;;;11.70;99.90;;;;;;5028982;28;20060;-65
2022/10/14 03:24:14;;;;;;;13.90;8.15;;;11.80;99.90;;;;;;5028913;28;20045;-65
2022/10/14 03:26:41;;;;;;;13.73;8.15;;;11.70;99.90;;;;;;5011487;28;20045;-64
2022/10/14 03:29:08;;;;;;;13.10;8.50;;;11.80;99.90;;;;;;5028969;28;20049;-65
2022/10/14 03:31:34;;;;;;;15.75;9.43;;;11.80;99.90;;;;;;5029053;28;20400;-65
2022/10/14 03:34:02;;;;;;;12.55;8.43;;;11.80;99.90;;;;;;5028888;28;20076;-65
2022/10/14 03:36:29;;;;;;;14.30;8.30;;;11.80;99.90;;;;;;5028635;28;20115;-64
2022/10/14 03:38:55;;;;;;;16.45;8.27;;;11.70;99.90;;;;;;5029057;28;20389;-65
2022/10/14 03:41:22;;;;;;;15.95;9.52;;;11.70;99.90;;;;;;5028634;28;20054;-66
2022/10/14 03:43:49;;;;;;;11.90;8.05;;;11.60;99.90;;;;;;5011347;28;20052;-64
2022/10/14 03:46:16;;;;;;;14.13;7.65;;;11.70;99.90;;;;;;5028362;28;20046;-64
2022/10/14 03:48:42;;;;;;;12.82;8.82;;;11.70;99.90;;;;;;5009301;28;20081;-64
2022/10/14 03:51:09;;;;;;;14.02;8.90;;;11.70;99.90;;;;;;5022985;28;20049;-64
2022/10/14 03:53:36;;;;;;;15.27;8.15;;;11.70;99.90;;;;;;5028615;28;20041;-64
2022/10/14 03:56:03;;;;;;;16.40;9.00;;;11.70;99.90;;;;;;5028422;28;20064;-64
2022/10/14 03:58:29;;;;;;;15.70;9.63;;;11.70;99.90;;;;;;5028883;28;20128;-64
2022/10/14 04:00:56;;;;;;;17.75;10.48;;;11.80;99.90;;;;;;5028527;28;20045;-64
2022/10/14 04:03:23;;;;;;;15.90;9.43;;;11.70;99.90;;;;;;5026328;28;20481;-65
2022/10/14 04:05:49;;;;;;;22.48;10.27;;;11.70;99.90;;;;;;5028332;28;20041;-65
2022/10/14 04:08:16;;;;;;;20.08;10.70;;;11.70;99.90;;;;;;5028460;28;20064;-63
2022/10/14 04:10:43;;;;;;;17.75;9.75;;;11.70;99.90;;;;;;5028320;28;20046;-66
2022/10/14 04:13:10;;;;;;;14.90;9.60;;;11.70;99.90;;;;;;5028386;28;20050;-64
2022/10/14 04:15:36;;;;;;;19.35;10.65;;;11.70;99.90;;;;;;5028421;28;20476;-65
2022/10/14 04:18:03;;;;;;;13.70;8.85;;;11.80;99.90;;;;;;5028312;28;20056;-65
2022/10/14 04:20:30;;;;;;;13.15;8.40;;;11.80;99.90;;;;;;5028482;28;20053;-66
2022/10/14 04:22:58;;;;;;;13.38;7.75;;;11.70;99.90;;;;;;5027169;28;20124;-66
2022/10/14 04:25:26;;;;;;;10.43;7.85;;;11.80;99.90;;;;;;5010900;28;20060;-66
2022/10/14 04:27:52;;;;;;;19.15;8.02;;;11.70;99.90;;;;;;5028315;28;20049;-66
2022/10/14 04:30:19;;;;;;;15.38;9.00;;;11.70;99.90;;;;;;5028711;28;20080;-66
2022/10/14 04:32:46;;;;;;;13.90;7.93;;;11.70;99.90;;;;;;5028085;28;20056;-65
2022/10/14 04:35:12;;;;;;;12.52;8.02;;;11.70;99.90;;;;;;5028452;28;20052;-65
2022/10/14 04:37:39;;;;;;;18.02;8.68;;;11.80;99.90;;;;;;5028156;28;20046;-65
2022/10/14 04:40:06;;;;;;;13.43;8.27;;;11.80;99.90;;;;;;5028559;28;20049;-65
2022/10/14 04:42:33;;;;;;;13.43;8.35;;;11.80;99.90;;;;;;5010698;28;20060;-65
2022/10/14 04:45:00;;;;;;;13.13;8.07;;;11.80;99.90;;;;;;5010600;28;20049;-65
2022/10/14 04:47:27;;;;;;;16.73;9.20;;;11.80;99.90;;;;;;5027918;28;20041;-65
2022/10/14 04:49:54;;;;;;;17.75;9.07;;;11.80;99.90;;;;;;5028038;28;20046;-65
2022/10/14 04:52:20;;;;;;;15.30;8.68;;;11.80;99.90;;;;;;5010448;28;20046;-66
2022/10/14 04:54:48;;;;;;;10.55;7.55;;;11.80;99.90;;;;;;5028229;28;20120;-66
2022/10/14 04:57:14;;;;;;;13.82;8.60;;;11.80;99.90;;;;;;5028243;28;20129;-65
2022/10/14 04:59:41;;;;;;;14.23;8.23;;;11.80;99.90;;;;;;5030479;28;20100;-66
2022/10/14 05:02:08;;;;;;;13.98;8.98;;;11.80;99.90;;;;;;5031787;28;20422;-67
2022/10/14 05:04:35;;;;;;;14.43;8.73;;;11.80;99.90;;;;;;5014335;28;20073;-64
2022/10/14 05:07:01;;;;;;;17.40;9.40;;;11.80;99.90;;;;;;5031700;28;20153;-64
2022/10/14 05:09:28;;;;;;;14.35;9.32;;;11.80;99.90;;;;;;5031438;28;20055;-66
2022/10/14 05:11:55;;;;;;;22.20;8.60;;;11.90;99.90;;;;;;5014275;28;20053;-66
2022/10/14 05:14:22;;;;;;;14.63;9.65;;;11.90;99.90;;;;;;5031469;28;20042;-66
2022/10/14 05:16:48;;;;;;;16.67;9.15;;;11.90;99.90;;;;;;5031776;28;20443;-65
2022/10/14 05:19:15;;;;;;;12.45;8.80;;;11.90;99.90;;;;;;5013775;28;20056;-65
2022/10/14 05:21:42;;;;;;;20.17;8.93;;;11.90;99.90;;;;;;5031634;28;20056;-65
2022/10/14 05:24:08;;;;;;;23.38;11.05;;;11.90;99.90;;;;;;5031368;28;20092;-65
2022/10/14 05:26:35;;;;;;;26.88;10.35;;;11.90;99.90;;;;;;5031693;28;20065;-66
2022/10/14 05:29:02;;;;;;;18.35;10.23;;;11.90;99.90;;;;;;5031338;28;20432;-64
2022/10/14 05:31:29;;;;;;;18.25;8.98;;;11.90;99.90;;;;;;5031472;28;20046;-64
2022/10/14 05:33:56;;;;;;;17.77;10.65;;;11.90;99.90;;;;;;5031132;28;20047;-65
2022/10/14 05:36:23;;;;;;;13.15;8.70;;;11.90;99.90;;;;;;5013378;28;20049;-64
2022/10/14 05:38:49;;;;;;;17.65;8.73;;;11.90;99.90;;;;;;5030906;28;20512;-65
2022/10/14 05:41:16;;;;;;;14.98;9.02;;;11.90;99.90;;;;;;5031454;28;20069;-64
2022/10/14 05:43:43;;;;;;;13.95;8.68;;;11.90;99.90;;;;;;5031056;28;20046;-65
2022/10/14 05:46:09;;;;;;;17.02;9.75;;;11.90;99.90;;;;;;5030973;28;20086;-64
2022/10/14 05:48:36;;;;;;;11.25;7.82;;;11.90;99.90;;;;;;5030545;28;20049;-65
2022/10/14 05:51:03;;;;;;;22.02;8.85;;;11.90;99.90;;;;;;5030396;28;20408;-65
2022/10/14 05:53:31;;;;;;;12.43;8.48;;;11.90;99.90;;;;;;5030522;28;20556;-65
2022/10/14 05:56:05;;;;;;;12.13;9.00;;;11.90;99.90;;;;;;5012461;28;20088;-65
2022/10/14 05:58:32;;;;;;;16.02;8.82;;;11.90;99.90;;;;;;5009007;28;20103;-66
2022/10/14 06:01:00;;;;;;;16.23;8.30;;;11.90;99.90;;;;;;5029532;28;20111;-66
2022/10/14 06:03:28;;;;;;;14.68;9.43;;;11.90;99.90;;;;;;5029949;28;20156;-65
2022/10/14 06:05:55;;;;;;;17.30;7.68;;;11.80;99.90;;;;;;5029902;28;20053;-65
2022/10/14 06:08:22;;;;;;;16.80;8.23;;;11.90;99.90;;;;;;5010414;28;20082;-64
2022/10/14 06:10:48;;;;;;;13.45;7.97;;;11.90;99.90;;;;;;5023943;28;20052;-65
2022/10/14 06:13:15;;;;;;;18.80;8.02;;;11.90;99.90;;;;;;5012026;28;20571;-65
2022/10/14 06:15:42;;;;;;;19.67;7.97;;;11.90;99.90;;;;;;5029512;28;20038;-66
2022/10/14 06:18:09;;;;;;;11.48;7.65;;;11.90;99.90;;;;;;5012314;28;20491;-65
2022/10/14 06:20:36;;;;;;;15.38;8.63;;;11.90;99.90;;;;;;5029674;28;20080;-65
2022/10/14 06:23:03;;;;;;;16.48;7.82;;;11.90;99.90;;;;;;5029554;28;20072;-65
2022/10/14 06:25:30;;;;;;;15.70;8.52;;;11.80;99.90;;;;;;5029394;28;20049;-65
2022/10/14 06:28:03;;;;;;;12.43;7.45;;;11.80;99.90;;;;;;5028598;28;20144;-66
2022/10/14 06:30:31;;;;;;;16.92;7.15;;;11.80;99.90;;;;;;5027191;28;20037;-65
2022/10/14 06:32:57;;;;;;;12.48;7.45;;;11.80;99.90;;;;;;5028977;28;20055;-66
2022/10/14 06:35:24;;;;;;;12.80;6.70;;;11.80;99.90;;;;;;5026475;28;20044;-65
2022/10/14 06:37:55;;;;;;;10.68;5.68;;;11.90;99.90;;;;;;5029151;28;20053;-64
2022/10/14 06:40:22;;;;;;;16.42;7.15;;;12.00;99.90;;;;;;5028056;28;20124;-63
2022/10/14 06:42:49;;;;;;;16.85;5.85;;;12.00;99.90;;;;;;5027591;28;20406;-65
2022/10/14 06:45:16;;;;;;;14.95;6.00;;;12.10;99.90;;;;;;5029169;28;20547;-64
2022/10/14 06:47:42;;;;;;;13.63;7.07;;;12.10;99.90;;;;;;5029014;28;20075;-64
2022/10/14 06:50:09;;;;;;;18.30;5.95;;;12.10;99.90;;;;;;5028897;28;20056;-65
2022/10/14 06:52:36;;;;;;;15.45;6.20;;;12.10;99.90;;;;;;5028443;28;20501;-65
2022/10/14 06:55:03;;;;;;;10.48;5.65;;;12.10;99.90;;;;;;5026954;28;20042;-64
2022/10/14 06:57:33;;;;;;;20.08;6.82;;;12.20;99.90;;;;;;5010951;28;20057;-65
2022/10/14 07:00:00;;;;;;;9.82;5.47;;;12.20;99.90;;;;;;5014666;28;20049;-64
2022/10/14 07:02:30;;;;;;;16.42;6.82;;;12.20;99.90;;;;;;5030731;28;20492;-64
2022/10/14 07:04:57;;;;;;;13.18;6.60;;;12.20;99.90;;;;;;5028214;28;20052;-65
2022/10/14 07:07:24;;;;;;;11.30;6.50;;;12.30;99.90;;;;;;5028417;28;20538;-65
2022/10/14 07:09:54;;;;;;;23.60;6.82;;;12.30;99.90;;;;;;5028619;28;20129;-64
2022/10/14 07:12:21;;;;;;;13.77;6.65;;;12.30;99.90;;;;;;5024493;28;20060;-63
2022/10/14 07:14:48;;;;;;;8.20;5.55;;;12.40;99.90;;;;;;5028730;28;20558;-64
2022/10/14 07:17:15;;;;;;;12.45;6.00;;;12.30;99.90;;;;;;5028669;28;20045;-63
2022/10/14 07:19:42;;;;;;;14.77;6.68;;;12.40;99.90;;;;;;5011008;28;20055;-64
2022/10/14 07:22:09;;;;;;;19.02;6.32;;;12.40;99.90;;;;;;5027570;28;20129;-64
2022/10/14 07:24:35;;;;;;;15.80;5.88;;;12.50;99.90;;;;;;5017867;28;20073;-65
2022/10/14 07:27:02;;;;;;;18.92;6.50;;;12.50;99.90;;;;;;5028389;28;20049;-65
2022/10/14 07:29:34;;;;;;;17.10;6.35;;;12.50;99.90;;;;;;5028691;28;20052;-64
2022/10/14 07:32:01;;;;;;;11.52;6.50;;;12.60;99.90;;;;;;5029073;28;20425;-63
2022/10/14 07:34:28;;;;;;;11.50;6.65;;;12.60;99.90;;;;;;5011216;28;20048;-65
2022/10/14 07:36:55;;;;;;;18.08;6.43;;;12.70;99.90;;;;;;5011167;28;20056;-63
2022/10/14 07:39:22;;;;;;;19.20;6.35;;;12.80;99.90;;;;;;5028514;28;20138;-64
2022/10/14 07:41:49;;;;;;;13.35;6.78;;;12.90;99.90;;;;;;5028900;28;20053;-63
2022/10/14 07:44:16;;;;;;;11.48;5.57;;;12.90;99.90;;;;;;5028415;28;20052;-64
2022/10/14 07:46:43;;;;;;;13.30;6.50;;;12.90;99.90;;;;;;5011313;28;20061;-62
2022/10/14 07:49:17;;;;;;;15.80;5.82;;;13.00;99.90;;;;;;5028095;28;20053;-61
2022/10/14 07:51:44;;;;;;;14.40;5.65;;;13.10;99.90;;;;;;5020060;28;20401;-61
2022/10/14 07:54:23;;;;;;;9.35;6.18;;;13.10;99.90;;;;;;5022229;28;20157;-61
2022/10/14 07:56:50;;;;;;;17.48;6.68;;;13.20;99.90;;;;;;5028313;28;20515;-63
2022/10/14 07:59:18;;;;;;;14.57;6.18;;;13.20;99.90;;;;;;5028257;28;20052;-62
2022/10/14 08:01:48;;;;;;;17.42;5.65;;;13.30;99.90;;;;;;5028345;28;20068;-61
2022/10/14 08:04:15;;;;;;;12.27;4.75;;;13.40;99.90;;;;;;5027856;28;20052;-62
2022/10/14 08:06:42;;;;;;;10.10;5.28;;;13.40;99.90;;;;;;5027728;28;20562;-61
2022/10/14 08:09:10;;;;;;;20.48;6.93;;;13.50;99.90;;;;;;5027584;28;20041;-62
2022/10/14 08:11:36;;;;;;;11.00;6.20;;;13.60;99.90;;;;;;5009673;28;20076;-63
2022/10/14 08:14:04;;;;;;;15.68;4.85;;;13.70;99.90;;;;;;5026414;28;20053;-61
2022/10/14 08:16:32;;;;;;;20.23;6.18;;;13.80;99.90;;;;;;5027824;28;20417;-63
2022/10/14 08:19:05;;;;;;;10.93;4.57;;;13.90;99.90;;;;;;5027500;28;20564;-64
2022/10/14 08:21:40;;;;;;;8.32;4.82;;;13.90;99.90;;;;;;5001712;28;20152;-62
2022/10/14 08:24:07;;;;;;;13.30;5.50;;;14.00;99.90;;;;;;5027548;28;20570;-62
2022/10/14 08:26:35;;;;;;;13.00;4.35;;;14.10;99.90;;;;;;5027967;28;20041;-63
2022/10/14 08:29:04;;;;;;;13.68;4.25;;;14.10;99.90;;;;;;5026506;28;20053;-64
2022/10/14 08:31:31;;;;;;;14.82;4.88;;;14.10;99.90;;;;;;5026168;28;20045;-63
2022/10/14 08:33:58;;;;;;;11.43;4.43;;;14.20;99.90;;;;;;5029327;28;20069;-63
2022/10/14 08:36:24;;;;;;;9.43;4.90;;;14.20;99.90;;;;;;5011366;28;20047;-63
2022/10/14 08:38:52;;;;;;;13.95;5.85;;;14.30;99.90;;;;;;5030063;28;20048;-63
2022/10/14 08:41:34;;;;;;;8.98;4.13;;;14.30;99.90;;;;;;5012882;28;20140;-63
2022/10/14 08:44:09;;;;;;;8.52;3.72;;;14.40;99.90;;;;;;5031353;28;20041;-62
2022/10/14 08:46:43;;;;;;;7.80;3.35;;;14.40;99.90;;;;;;5031393;28;20057;-62
2022/10/14 08:49:39;;;;;;;6.90;4.18;;;14.40;99.90;;;;;;5031643;28;20144;-62
2022/10/14 08:52:32;;;;;;;10.88;3.38;;;14.50;99.90;;;;;;5031521;28;20408;-62
2022/10/14 08:55:18;;;;;;;8.13;4.25;;;14.50;99.90;;;;;;5016131;28;20137;-62
2022/10/14 08:57:53;;;;;;;10.32;3.45;;;14.60;99.90;;;;;;5009884;28;20045;-63
2022/10/14 09:00:20;;;;;;;12.27;4.00;;;14.70;99.90;;;;;;5013993;28;20046;-63
2022/10/14 09:02:48;;;;;;;12.10;4.43;;;14.70;99.90;;;;;;5013789;28;20038;-63
2022/10/14 09:05:26;;;;;;;9.77;3.70;;;14.80;99.90;;;;;;5031071;28;20045;-62
2022/10/14 09:07:54;;;;;;;7.82;3.20;;;14.80;99.90;;;;;;5013484;28;20057;-63
2022/10/14 09:10:44;;;;;;;15.70;3.70;;;14.90;99.90;;;;;;5012903;28;20138;-62
2022/10/14 09:13:21;;;;;;;8.13;3.47;;;14.90;99.90;;;;;;5031291;28;20053;-63
2022/10/14 09:15:52;;;;;;;9.20;3.10;;;15.00;99.90;;;;;;5013256;28;20083;-65
2022/10/14 09:18:22;;;;;;;11.80;3.58;;;15.00;99.90;;;;;;5013186;28;20091;-61
2022/10/14 09:20:49;;;;;;;14.18;3.40;;;15.10;99.90;;;;;;5013098;28;20045;-61
2022/10/14 09:23:21;;;;;;;11.55;2.65;;;15.10;99.90;;;;;;5030798;28;20045;-62
2022/10/14 09:26:07;;;;;;;6.80;2.20;;;15.20;99.90;;;;;;5031074;28;20237;-62
2022/10/14 09:28:39;;;;;;;8.55;2.40;;;15.20;99.90;;;;;;5029824;28;20087;-62
2022/10/14 09:31:10;;;;;;;8.05;4.07;;;15.30;99.90;;;;;;5013339;28;20045;-64
2022/10/14 09:33:40;;;;;;;7.65;3.35;;;15.40;99.90;;;;;;5013463;28;20049;-63
2022/10/14 09:36:19;;;;;;;9.35;2.40;;;15.40;99.90;;;;;;5013855;28;20148;-64
2022/10/14 09:38:50;;;;;;;13.43;4.05;;;15.50;99.90;;;;;;5028137;28;20049;-64
2022/10/14 09:41:17;;;;;;;8.63;2.40;;;15.60;99.90;;;;;;5030548;28;20046;-63
2022/10/14 09:44:20;;;;;;;9.38;2.40;;;15.70;99.90;;;;;;5030646;28;20054;-62
2022/10/14 09:47:01;;;;;;;3.78;1.98;;;15.80;99.90;;;;;;5030601;28;20132;-62
2022/10/14 09:49:39;;;;;;;10.48;2.00;;;15.90;99.90;;;;;;5002623;28;20051;-63
2022/10/14 09:52:06;;;;;;;2.97;1.40;;;15.90;99.90;;;;;;5013876;28;20088;-62
2022/10/14 09:54:33;;;;;;;8.52;1.70;;;15.90;99.90;;;;;;5030686;28;20133;-63
2022/10/14 09:57:07;;;;;;;7.47;2.00;;;15.90;99.90;;;;;;5030178;28;20061;-61
2022/10/14 09:59:46;;;;;;;;;;;16.00;99.90;;;;;;5013418;28;20049;-63
2022/10/14 10:02:24;;;;;;;6.20;1.88;;;16.00;99.90;;;;;;5012795;28;19927;-63
2022/10/14 10:04:53;;;;;;;11.00;1.63;;;16.00;99.90;;;;;;5030333;28;20096;-62
2022/10/14 10:07:30;;;;;;;3.85;1.60;;;16.10;99.90;;;;;;5030307;28;20049;-63
2022/10/14 10:09:58;;;;;;;5.65;2.17;;;16.20;99.90;;;;;;5012733;28;20052;-63
2022/10/14 10:12:30;;;;;;;5.93;2.00;;;16.20;99.90;;;;;;5030199;28;20049;-62
2022/10/14 10:14:58;;;;;;;4.70;1.45;;;16.30;99.90;;;;;;5030128;28;20088;-61
2022/10/14 10:17:26;;;;;;;7.15;1.85;;;16.30;99.90;;;;;;5029766;28;20519;-62
2022/10/14 10:20:15;;;;;;;4.05;1.65;;;16.30;99.90;;;;;;5030140;28;20068;-62
2022/10/14 10:22:43;;;;;;;6.47;2.10;;;16.30;99.90;;;;;;5030026;28;20045;-63
2022/10/14 10:25:10;;;;;;;9.50;1.92;;;16.30;99.90;;;;;;5029690;28;20053;-65
2022/10/14 10:27:44;;;;;;;9.48;1.92;;;16.40;99.90;;;;;;5029812;28;20440;-63
2022/10/14 10:30:17;;;;;;;6.75;2.30;;;16.40;99.90;;;;;;5012144;28;20045;-62
2022/10/14 10:32:55;;;;;;;3.22;1.95;;;16.30;99.90;;;;;;5029500;28;20153;-64
2022/10/14 10:35:31;;;;;;;6.55;1.88;;;16.30;99.90;;;;;;5029007;28;20042;-63
2022/10/14 10:38:19;;;;;;;6.60;2.05;;;16.30;99.90;;;;;;5029500;28;20064;-63
2022/10/14 10:41:04;;;;;;;5.43;2.20;;;16.40;99.90;;;;;;5026757;28;20499;-63
2022/10/14 10:43:52;;;;;;;6.32;2.03;;;16.40;99.90;;;;;;5029686;28;20054;-63
2022/10/14 10:46:26;;;;;;;8.77;2.00;;;16.40;99.90;;;;;;5018696;28;20049;-64
2022/10/14 10:49:02;;;;;;;;;;;16.40;99.90;;;;;;5029670;28;20053;-63
2022/10/14 10:51:34;;;;;;;5.65;2.15;;;16.30;99.90;;;;;;5000807;28;19927;-63
2022/10/14 10:54:23;;;;;;;10.33;2.17;;;16.20;99.90;;;;;;5029155;28;20439;-64
2022/10/14 10:56:56;;;;;;;7.38;2.47;;;16.10;99.90;;;;;;4986304;28;20050;-63
2022/10/14 10:59:26;;;;;;;3.33;2.28;;;16.20;99.90;;;;;;5011338;28;20110;-62
2022/10/14 11:01:58;;;;;;;11.18;4.00;;;16.30;99.90;;;;;;5018439;28;20106;-64
2022/10/14 11:04:33;;;;;;;5.57;2.53;;;16.20;99.90;;;;;;5028912;28;20068;-64
2022/10/14 11:13:41;;;;;;;7.60;2.80;;;16.10;99.90;;;;;;5015242;28;20049;-64
2022/10/14 11:16:29;;;;;;;9.07;3.53;;;16.20;99.90;;;;;;5011298;28;20099;-63
2022/10/14 11:19:23;;;;;;;6.05;2.13;;;16.10;99.90;;;;;;5065614;28;20445;-62
2022/10/14 11:21:57;;;;;;;5.80;2.83;;;16.00;99.90;;;;;;5064989;28;20076;-62
2022/10/14 11:24:31;;;;;;;5.75;2.75;;;16.00;99.90;;;;;;5065589;28;20120;-64
2022/10/14 11:27:07;;;;;;;;;;;16.00;99.90;;;;;;5063548;28;20053;-66
2022/10/14 11:30:00;;;;;;;8.93;2.78;;;16.00;99.90;;;;;;5063420;28;20388;-63
2022/10/14 11:32:39;;;;;;;6.75;2.50;;;16.00;99.90;;;;;;4707616;28;10000747;-63
2022/10/14 11:35:15;;;;;;;8.65;2.53;;;16.10;99.90;;;;;;5059653;28;20495;-62
2022/10/14 11:37:45;;;;;;;6.10;2.78;;;16.20;99.90;;;;;;5058259;28;20049;-62
2022/10/14 11:40:37;;;;;;;11.15;3.75;;;16.20;99.90;;;;;;5061613;28;20063;-60
2022/10/14 11:43:15;;;;;;;8.32;3.63;;;16.30;99.90;;;;;;5039506;28;20534;-63
2022/10/14 11:45:58;;;;;;;6.30;2.75;;;16.40;99.90;;;;;;5044322;28;20047;-64
2022/10/14 11:48:34;;;;;;;9.77;2.30;;;16.60;99.90;;;;;;5049845;28;20087;-63
2022/10/14 11:51:34;;;;;;;9.45;3.50;;;16.70;99.90;;;;;;5061644;28;20048;-63
2022/10/14 11:54:04;;;;;;;14.00;3.28;;;16.80;99.90;;;;;;5055583;28;20053;-62
2022/10/14 11:56:55;;;;;;;7.60;2.97;;;16.70;99.90;;;;;;5062048;28;20052;-63
2022/10/14 11:59:59;;;;;;;11.02;4.05;;;16.70;99.90;;;;;;5062255;28;20136;-63
2022/10/14 12:02:53;;;;;;;7.75;2.63;;;16.70;99.90;;;;;;5061827;28;20056;-63
2022/10/14 12:05:24;;;;;;;8.82;2.60;;;16.70;99.90;;;;;;5041032;28;20060;-63
2022/10/14 12:08:00;;;;;;;8.98;2.65;;;16.70;99.90;;;;;;5055978;28;20094;-63
2022/10/14 12:10:37;;;;;;;11.20;2.53;;;16.70;99.90;;;;;;5041680;28;20467;-63
2022/10/14 12:13:06;;;;;;;7.90;2.60;;;16.70;99.90;;;;;;5056233;28;20084;-64
2022/10/14 12:15:33;;;;;;;11.30;3.58;;;16.70;99.90;;;;;;5060278;28;20056;-63
2022/10/14 12:18:03;;;;;;;11.32;3.42;;;16.60;99.90;;;;;;5043335;28;20056;-63
2022/10/14 12:20:43;;;;;;;16.20;2.85;;;16.60;99.90;;;;;;5059832;28;20045;-63
2022/10/14 12:23:15;;;;;;;4.75;2.10;;;16.70;99.90;;;;;;5060330;28;20059;-64
2022/10/14 12:26:02;;;;;;;5.45;2.22;;;16.70;99.90;;;;;;5060028;28;20052;-62
2022/10/14 12:28:28;;;;;;;11.05;2.63;;;16.70;99.90;;;;;;5057555;28;20164;-63
2022/10/14 12:31:21;;;;;;;6.10;2.22;;;16.70;99.90;;;;;;5030184;28;20056;-63
2022/10/14 12:34:10;;;;;;;5.60;2.20;;;16.80;99.90;;;;;;5047754;28;20048;-63
2022/10/14 12:36:37;;;;;;;7.13;2.22;;;16.80;99.90;;;;;;5041296;28;20057;-64
2022/10/14 12:39:16;;;;;;;12.45;2.25;;;16.80;99.90;;;;;;5046115;28;20539;-64
2022/10/14 12:41:53;;;;;;;5.95;1.98;;;16.80;99.90;;;;;;5048079;28;20049;-63
2022/10/14 12:44:21;;;;;;;6.13;2.22;;;16.80;99.90;;;;;;5046428;28;20057;-63
2022/10/14 12:46:49;;;;;;;6.47;1.83;;;16.80;99.90;;;;;;5030587;28;20067;-63
2022/10/14 12:49:33;;;;;;;8.40;3.03;;;16.80;99.90;;;;;;5045533;28;20507;-64
2022/10/14 12:52:02;;;;;;;8.95;2.95;;;16.80;99.90;;;;;;5027911;28;20084;-63
2022/10/14 12:54:29;;;;;;;8.75;2.25;;;16.70;99.90;;;;;;5042703;28;20068;-63
2022/10/14 12:57:21;;;;;;;5.38;2.45;;;16.70;99.90;;;;;;5046775;28;20056;-63
2022/10/14 12:59:49;;;;;;;12.50;2.42;;;16.70;99.90;;;;;;5045016;28;20045;-63
2022/10/14 13:02:52;;;;;;;5.85;3.08;;;16.70;99.90;;;;;;5028571;28;20060;-63
2022/10/14 13:05:38;;;;;;;4.55;2.05;;;16.60;99.90;;;;;;5043891;28;20037;-64
2022/10/14 13:08:24;;;;;;;7.10;1.92;;;16.70;99.90;;;;;;5042966;28;20218;-63
2022/10/14 13:10:58;;;;;;;12.70;2.55;;;16.70;99.90;;;;;;5028929;28;20126;-62